KCSM

Clinton-Sherman Airport

Burns Flat, Oklahoma, USA
METAR KCSM 201503Z 35025G31KT 3SM BR OVC004 M04/M05 A2996 RMK AO2 PK WND 35031/1500 T10391050
Observed Flight Rules
Feb-20 @ 15:03 UTC (2 hours ago) Instrument Flight Rules
Wind Visibility Clouds Conditions
350° at 25 knots
 Gusting to 31 knots
3 miles
  • Overcast at 400' AGL
  • Mist
Temperatures Readings
Current -4°C / 25°F
Dewpoint -5°C / 23°F
Humidity 93%
Altimeter 29.96" Hg
Pressure 1015 hPa
Elevation 588
METAR KCSM 201503Z 35025G31KT 3SM BR OVC004 M04/M05 A2996 RMK AO2 PK WND 35031/1500 T10391050
Observed Flight Rules
Feb-20 @ 15:03 UTC
(2 hours ago)
LIFR
Wind Visibility
350° at 25 knots
 Gusting to 31 knots
3 miles
Clouds
  • Overcast at 400' AGL
Conditions
  • Mist
Temperature Dewpoint
-4°C / 25°F -5°C / 23°F
Humidity Altimeter Pressure
93% 29.96" Hg 1015 hPa